createdAt,value
2023-05-12T00:00:25.874Z,6.92
2023-05-12T00:02:52.595Z,7.23
2023-05-12T00:05:19.362Z,7.00
2023-05-12T00:07:45.936Z,6.60
2023-05-12T00:10:12.566Z,6.66
2023-05-12T00:12:39.148Z,6.62
2023-05-12T00:15:06.426Z,6.78
2023-05-12T00:17:33.063Z,6.68
2023-05-12T00:19:59.712Z,6.62
2023-05-12T00:22:26.859Z,7.19
2023-05-12T00:24:53.504Z,6.83
2023-05-12T00:27:20.110Z,6.81
2023-05-12T00:29:46.671Z,6.96
2023-05-12T00:32:13.329Z,6.83
2023-05-12T00:34:40.242Z,6.64
2023-05-12T00:37:07.165Z,6.31
2023-05-12T00:39:33.849Z,6.38
2023-05-12T00:42:00.523Z,6.31
2023-05-12T00:44:27.116Z,6.31
2023-05-12T00:46:54.503Z,6.05
2023-05-12T00:49:21.882Z,6.33
2023-05-12T00:51:48.701Z,6.15
2023-05-12T00:54:16.577Z,6.15
2023-05-12T00:56:43.241Z,6.43
2023-05-12T00:59:09.824Z,6.91
2023-05-12T01:01:37.804Z,6.65
2023-05-12T01:04:04.575Z,6.97
2023-05-12T01:06:55.325Z,6.52
2023-05-12T01:09:22.222Z,6.66
2023-05-12T01:11:48.813Z,6.52
2023-05-12T01:14:15.722Z,6.44
2023-05-12T01:16:53.242Z,6.37
2023-05-12T01:19:43.703Z,6.20
2023-05-12T01:22:12.612Z,6.24
2023-05-12T01:24:50.816Z,6.23
2023-05-12T01:27:18.049Z,6.27
2023-05-12T01:29:47.792Z,6.61
2023-05-12T01:32:15.939Z,6.35
2023-05-12T01:34:43.369Z,6.54
2023-05-12T01:37:10.906Z,6.63
2023-05-12T01:39:38.082Z,6.69
2023-05-12T01:42:05.735Z,6.57
2023-05-12T01:44:32.364Z,6.63
2023-05-12T01:46:59.035Z,6.62
2023-05-12T01:49:25.584Z,6.28
2023-05-12T01:51:52.173Z,6.07
2023-05-12T01:54:18.929Z,6.20
2023-05-12T01:56:45.504Z,5.86
2023-05-12T01:59:12.183Z,5.62
2023-05-12T02:01:38.876Z,5.62
2023-05-12T02:04:07.955Z,5.42
2023-05-12T02:06:34.668Z,4.97
2023-05-12T02:09:01.331Z,4.75
2023-05-12T02:11:27.908Z,4.93
2023-05-12T02:13:54.492Z,4.81
2023-05-12T02:16:21.279Z,4.60
2023-05-12T02:18:48.177Z,4.78
2023-05-12T02:21:14.828Z,4.60
2023-05-12T02:23:41.681Z,4.65
2023-05-12T02:26:08.323Z,4.62
2023-05-12T02:28:35.132Z,4.30
2023-05-12T02:31:01.756Z,4.64
2023-05-12T02:33:28.387Z,4.57
2023-05-12T02:35:54.932Z,4.34
2023-05-12T02:38:21.679Z,4.62
2023-05-12T02:40:48.494Z,4.72
2023-05-12T02:43:15.065Z,4.62
2023-05-12T02:45:42.261Z,4.90
2023-05-12T02:48:09.034Z,4.87
2023-05-12T02:50:35.678Z,4.88
2023-05-12T02:53:02.301Z,5.13
2023-05-12T02:55:30.261Z,5.37
2023-05-12T02:57:57.106Z,5.58
2023-05-12T03:00:23.747Z,5.66
2023-05-12T03:02:51.065Z,5.81
2023-05-12T03:05:17.888Z,6.12
2023-05-12T03:07:44.635Z,6.49
2023-05-12T03:10:11.252Z,6.64
2023-05-12T03:12:37.828Z,6.92
2023-05-12T03:15:04.765Z,6.85
2023-05-12T03:17:31.528Z,7.08
2023-05-12T03:19:58.169Z,7.63
2023-05-12T03:22:24.884Z,8.24
2023-05-12T03:24:51.924Z,7.89
2023-05-12T03:27:18.874Z,8.10
2023-05-12T03:29:46.066Z,8.76
2023-05-12T03:32:13.474Z,9.09
2023-05-12T03:34:40.264Z,9.38
2023-05-12T03:37:07.004Z,9.70
2023-05-12T03:39:33.565Z,9.75
2023-05-12T03:42:00.192Z,10.33
2023-05-12T03:44:26.788Z,10.27
2023-05-12T03:46:53.587Z,11.19
2023-05-12T03:49:20.234Z,11.37
2023-05-12T03:51:46.869Z,11.92
2023-05-12T03:54:13.453Z,12.18
2023-05-12T03:56:40.026Z,12.26
2023-05-12T03:59:06.618Z,12.82
2023-05-12T04:01:33.324Z,13.09
2023-05-12T04:04:00.009Z,13.15
2023-05-12T04:06:26.658Z,13.58
2023-05-12T04:08:53.464Z,13.93
2023-05-12T04:11:20.272Z,14.33
2023-05-12T04:13:46.942Z,14.31
2023-05-12T04:16:14.194Z,14.66
2023-05-12T04:18:40.959Z,15.06
2023-05-12T04:21:07.573Z,15.16
2023-05-12T04:23:34.168Z,15.28
2023-05-12T04:26:04.054Z,15.61
2023-05-12T04:28:30.980Z,16.07
2023-05-12T04:31:03.832Z,15.83
2023-05-12T04:33:31.052Z,16.30
2023-05-12T04:35:58.258Z,16.66
2023-05-12T04:38:24.980Z,16.88
2023-05-12T04:40:51.631Z,17.27
2023-05-12T04:45:47.832Z,17.86
2023-05-12T04:48:14.439Z,18.31
2023-05-12T04:50:41.409Z,18.05
2023-05-12T04:53:08.602Z,18.60
2023-05-12T04:55:36.662Z,18.63
2023-05-12T04:58:03.264Z,19.36
2023-05-12T05:00:29.854Z,19.38
2023-05-12T05:02:56.745Z,20.11
2023-05-12T05:05:23.533Z,20.03
2023-05-12T05:07:50.189Z,19.73
2023-05-12T05:10:16.818Z,20.56
2023-05-12T05:12:43.399Z,20.54
2023-05-12T05:15:11.586Z,21.08
2023-05-12T05:17:38.473Z,21.25
2023-05-12T05:20:11.479Z,21.31
2023-05-12T05:22:39.560Z,21.04
2023-05-12T05:25:07.022Z,21.72
2023-05-12T05:27:33.760Z,21.69
2023-05-12T05:30:00.307Z,22.26
2023-05-12T05:32:27.025Z,22.07
2023-05-12T05:34:53.962Z,22.54
2023-05-12T05:37:20.617Z,22.24
2023-05-12T05:39:47.211Z,22.47
2023-05-12T05:42:13.890Z,22.32
2023-05-12T05:44:40.505Z,22.43
2023-05-12T05:47:07.192Z,22.87
2023-05-12T05:49:33.789Z,22.33
2023-05-12T05:52:00.498Z,22.86
2023-05-12T05:54:27.132Z,23.21
2023-05-12T05:56:53.708Z,23.21
2023-05-12T05:59:20.322Z,23.30
2023-05-12T06:01:46.945Z,23.07
2023-05-12T06:04:13.695Z,23.98
2023-05-12T06:06:40.278Z,22.88
2023-05-12T06:09:07.207Z,22.95
2023-05-12T06:11:33.887Z,22.98
2023-05-12T06:14:00.480Z,22.72
2023-05-12T06:16:27.071Z,23.45
2023-05-12T06:18:53.688Z,23.01
2023-05-12T06:21:20.269Z,23.54
2023-05-12T06:23:46.873Z,23.31
2023-05-12T06:26:13.480Z,23.39
2023-05-12T06:28:40.058Z,23.54
2023-05-12T06:31:08.638Z,23.31
2023-05-12T06:33:35.445Z,23.93
2023-05-12T06:36:02.257Z,24.03
2023-05-12T06:38:28.849Z,24.19
2023-05-12T06:40:55.528Z,23.89
2023-05-12T06:43:23.359Z,23.11
2023-05-12T06:45:50.593Z,23.30
2023-05-12T06:48:17.154Z,23.50
2023-05-12T06:50:43.738Z,23.74
2023-05-12T06:53:10.302Z,23.47
2023-05-12T06:55:36.857Z,23.78
2023-05-12T06:58:03.515Z,24.07
2023-05-12T07:00:30.180Z,23.65
2023-05-12T07:02:56.920Z,24.04
2023-05-12T07:05:23.765Z,23.99
2023-05-12T07:07:50.657Z,23.18
2023-05-12T07:10:17.289Z,23.71
2023-05-12T07:12:44.061Z,23.43
2023-05-12T07:15:10.955Z,23.83
2023-05-12T07:17:37.766Z,23.31
2023-05-12T07:20:05.686Z,23.29
2023-05-12T07:22:32.668Z,24.26
2023-05-12T07:24:59.523Z,23.15
2023-05-12T07:27:26.937Z,23.35
2023-05-12T07:29:53.593Z,23.36
2023-05-12T07:32:21.317Z,23.71
2023-05-12T07:34:48.211Z,22.83
2023-05-12T07:37:14.809Z,23.35
2023-05-12T07:39:41.406Z,22.80
2023-05-12T07:42:08.878Z,23.16
2023-05-12T07:44:36.279Z,23.14
2023-05-12T07:47:02.987Z,22.31
2023-05-12T07:49:29.625Z,22.54
2023-05-12T07:51:56.251Z,21.91
2023-05-12T07:54:24.434Z,21.50
2023-05-12T07:56:51.568Z,20.83
2023-05-12T07:59:18.207Z,19.61
2023-05-12T08:01:44.875Z,19.02
2023-05-12T08:04:11.709Z,19.89
2023-05-12T08:06:38.980Z,19.45
2023-05-12T08:09:05.720Z,18.95
2023-05-12T08:11:32.821Z,19.03
2023-05-12T08:13:59.462Z,18.92
2023-05-12T08:16:26.228Z,18.96
2023-05-12T08:18:52.901Z,19.43
2023-05-12T08:21:19.495Z,19.78
2023-05-12T08:23:46.142Z,19.52
2023-05-12T08:26:12.786Z,18.62
2023-05-12T08:28:39.441Z,18.63
2023-05-12T08:31:06.227Z,18.35
2023-05-12T08:33:35.871Z,18.08
2023-05-12T08:36:02.774Z,17.62
2023-05-12T08:38:29.648Z,17.58
2023-05-12T08:41:02.193Z,17.48
2023-05-12T08:43:41.177Z,17.41
2023-05-12T08:46:08.178Z,16.88
2023-05-12T08:48:35.616Z,16.89
2023-05-12T08:51:06.606Z,16.52
2023-05-12T08:53:34.229Z,17.21
2023-05-12T08:58:41.737Z,16.24
2023-05-12T09:01:11.991Z,15.90
2023-05-12T09:03:39.086Z,15.41
2023-05-12T09:06:07.036Z,15.14
2023-05-12T09:08:35.142Z,14.91
2023-05-12T09:11:02.552Z,15.42
2023-05-12T09:13:50.272Z,14.57
2023-05-12T09:16:24.430Z,14.80
2023-05-12T09:19:00.251Z,14.47
2023-05-12T09:21:28.608Z,13.66
2023-05-12T09:23:59.028Z,12.99
2023-05-12T09:26:27.272Z,12.47
2023-05-12T09:28:56.564Z,12.05
2023-05-12T09:31:25.067Z,11.83
2023-05-12T09:33:52.188Z,12.19
2023-05-12T09:36:23.363Z,10.17
2023-05-12T09:39:19.349Z,9.30
2023-05-12T09:41:47.976Z,9.32
2023-05-12T09:44:17.004Z,9.44
2023-05-12T09:46:43.649Z,9.73
2023-05-12T09:49:10.822Z,9.86
2023-05-12T09:51:37.998Z,10.28
2023-05-12T09:54:06.468Z,10.20
2023-05-12T09:56:37.893Z,10.02
2023-05-12T09:59:05.888Z,10.50
2023-05-12T10:01:32.593Z,10.10
2023-05-12T10:03:59.546Z,10.20
2023-05-12T10:06:39.504Z,9.93
2023-05-12T10:09:20.039Z,9.53
2023-05-12T10:11:49.203Z,8.93
2023-05-12T10:14:17.510Z,8.87
2023-05-12T10:16:47.540Z,8.53
2023-05-12T10:19:14.556Z,8.49
2023-05-12T10:21:46.033Z,8.79
2023-05-12T10:24:16.924Z,8.51
2023-05-12T10:26:44.812Z,8.78
2023-05-12T10:29:13.071Z,8.92
2023-05-12T10:31:40.358Z,8.31
2023-05-12T10:34:07.389Z,8.54
2023-05-12T10:36:48.100Z,8.59
2023-05-12T10:39:15.624Z,8.34
2023-05-12T10:41:42.815Z,7.68
2023-05-12T10:44:12.652Z,7.94
2023-05-12T10:46:39.337Z,7.46
2023-05-12T10:49:05.921Z,7.42
2023-05-12T10:51:50.819Z,6.69
2023-05-12T10:54:25.975Z,6.20
2023-05-12T10:56:57.564Z,6.96
2023-05-12T10:59:27.010Z,6.70
2023-05-12T11:02:16.861Z,6.89
2023-05-12T11:04:55.467Z,6.99
2023-05-12T11:07:26.632Z,6.12
2023-05-12T11:09:58.460Z,5.82
2023-05-12T11:12:35.152Z,5.55
2023-05-12T11:15:04.167Z,5.73
2023-05-12T11:17:30.937Z,5.55
2023-05-12T11:19:58.471Z,5.40
2023-05-12T11:22:25.263Z,5.34
2023-05-12T11:24:53.139Z,5.45
2023-05-12T11:27:22.755Z,4.80
2023-05-12T11:29:58.049Z,4.95
2023-05-12T11:32:24.813Z,4.92
2023-05-12T11:34:51.480Z,4.88
2023-05-12T11:37:21.039Z,4.89
2023-05-12T11:39:48.136Z,4.86
2023-05-12T11:42:16.786Z,4.87
2023-05-12T11:44:49.642Z,4.83
2023-05-12T11:47:17.792Z,4.81
2023-05-12T11:49:52.527Z,5.13
2023-05-12T11:52:21.523Z,4.96
2023-05-12T11:54:53.240Z,5.01
2023-05-12T11:57:31.802Z,5.51
2023-05-12T12:00:00.279Z,5.65
2023-05-12T12:02:28.250Z,6.02
2023-05-12T12:04:55.139Z,5.66
2023-05-12T12:07:32.515Z,5.39
2023-05-12T12:10:10.610Z,5.54
2023-05-12T12:12:37.205Z,5.64
2023-05-12T12:15:05.174Z,5.41
2023-05-12T12:17:31.869Z,5.05
2023-05-12T12:19:59.025Z,5.32
2023-05-12T12:22:25.582Z,5.29
2023-05-12T12:24:52.142Z,5.42
2023-05-12T12:27:18.712Z,5.61
2023-05-12T12:29:45.298Z,5.50
2023-05-12T12:32:12.133Z,5.60
2023-05-12T12:34:38.721Z,5.77
2023-05-12T12:37:05.459Z,5.76
2023-05-12T12:39:32.020Z,5.62
2023-05-12T12:41:58.991Z,5.50
2023-05-12T12:44:25.598Z,5.51
2023-05-12T12:46:52.194Z,5.59
2023-05-12T12:49:18.763Z,5.42
2023-05-12T12:51:46.744Z,5.44
2023-05-12T12:54:15.003Z,5.92
2023-05-12T12:56:44.307Z,5.84
2023-05-12T12:59:11.859Z,5.81
2023-05-12T13:01:38.512Z,5.56
2023-05-12T13:04:05.147Z,5.80
2023-05-12T13:06:31.721Z,5.44
2023-05-12T13:08:58.401Z,5.77
2023-05-12T13:11:25.075Z,5.90
2023-05-12T13:13:51.750Z,5.83
2023-05-12T13:16:18.469Z,6.02
2023-05-12T13:18:45.851Z,6.32
2023-05-12T13:21:12.608Z,6.31
2023-05-12T13:23:39.268Z,6.49
2023-05-12T13:26:05.844Z,6.36
2023-05-12T13:28:32.465Z,6.49
2023-05-12T13:30:59.356Z,7.18
2023-05-12T13:33:25.958Z,7.03
2023-05-12T13:35:52.579Z,7.21
2023-05-12T13:38:19.910Z,7.00
2023-05-12T13:40:46.821Z,6.97
2023-05-12T13:43:13.481Z,6.77
2023-05-12T13:45:40.118Z,6.75
2023-05-12T13:48:06.893Z,6.90
2023-05-12T13:50:33.889Z,6.57
2023-05-12T13:53:01.037Z,6.20
2023-05-12T13:55:27.690Z,6.44
2023-05-12T13:57:54.334Z,6.55
2023-05-12T14:00:21.140Z,5.86
2023-05-12T14:02:47.761Z,5.74
2023-05-12T14:05:14.785Z,5.60
2023-05-12T14:07:42.605Z,5.88
2023-05-12T14:10:10.154Z,5.60
2023-05-12T14:12:41.194Z,5.71
2023-05-12T14:15:21.742Z,5.44
2023-05-12T14:17:55.430Z,5.23
2023-05-12T14:20:22.030Z,5.49
2023-05-12T14:22:48.591Z,5.38
2023-05-12T14:25:16.318Z,5.55
2023-05-12T14:27:42.926Z,5.68
2023-05-12T14:30:10.596Z,6.10
2023-05-12T14:32:37.272Z,5.71
2023-05-12T14:35:04.445Z,5.96
2023-05-12T14:37:31.676Z,5.76
2023-05-12T14:39:58.253Z,5.73
2023-05-12T14:42:28.358Z,5.85
2023-05-12T14:44:55.573Z,5.67
2023-05-12T14:47:22.176Z,5.75
2023-05-12T14:49:49.055Z,5.82
2023-05-12T14:52:15.905Z,5.67
2023-05-12T14:54:42.481Z,5.73
2023-05-12T14:57:09.134Z,5.66
2023-05-12T14:59:36.035Z,5.92
2023-05-12T15:02:02.653Z,6.22
2023-05-12T15:04:29.286Z,5.74
2023-05-12T15:06:56.045Z,5.55
2023-05-12T15:09:22.605Z,5.56
2023-05-12T15:11:49.794Z,5.92
2023-05-12T15:14:16.415Z,5.70
2023-05-12T15:16:43.509Z,5.83
2023-05-12T15:19:10.396Z,6.02
2023-05-12T15:21:37.092Z,5.90
2023-05-12T15:24:04.042Z,6.16
2023-05-12T15:26:34.187Z,6.18
2023-05-12T15:29:02.259Z,5.99
2023-05-12T15:31:29.582Z,6.04
2023-05-12T15:33:57.289Z,5.81
2023-05-12T15:36:24.704Z,5.39
2023-05-12T15:38:51.410Z,4.99
2023-05-12T15:41:18.060Z,5.21
2023-05-12T15:43:44.670Z,5.06
2023-05-12T15:46:11.719Z,4.81
2023-05-12T15:48:39.291Z,5.77
2023-05-12T15:51:06.597Z,6.39
2023-05-12T15:53:33.389Z,7.03
2023-05-12T15:56:04.586Z,6.77
2023-05-12T15:58:31.647Z,7.82
2023-05-12T16:00:59.058Z,8.49
2023-05-12T16:03:25.939Z,8.65
2023-05-12T16:05:52.638Z,8.92
2023-05-12T16:08:19.379Z,9.17
2023-05-12T16:10:45.997Z,9.58
2023-05-12T16:13:13.699Z,9.64
2023-05-12T16:15:40.778Z,9.81
2023-05-12T16:18:10.937Z,9.27
2023-05-12T16:20:38.783Z,9.15
2023-05-12T16:23:05.511Z,9.01
2023-05-12T16:25:32.122Z,8.78
2023-05-12T16:27:59.405Z,8.37
2023-05-12T16:30:26.437Z,8.62
2023-05-12T16:32:53.269Z,8.00
2023-05-12T16:35:20.823Z,8.40
2023-05-12T16:37:47.961Z,8.56
2023-05-12T16:40:15.418Z,8.12
2023-05-12T16:42:42.709Z,7.72
2023-05-12T16:45:10.860Z,8.15
2023-05-12T16:47:37.617Z,8.43
2023-05-12T16:50:04.763Z,8.59
2023-05-12T16:52:31.325Z,8.56
2023-05-12T16:54:57.949Z,8.78
2023-05-12T16:57:24.657Z,8.91
2023-05-12T16:59:51.541Z,9.24
2023-05-12T17:02:18.590Z,9.52
2023-05-12T17:04:46.497Z,9.57
2023-05-12T17:07:13.431Z,9.49
2023-05-12T17:09:40.271Z,9.22
2023-05-12T17:12:07.947Z,9.53
2023-05-12T17:14:34.967Z,9.95
2023-05-12T17:17:02.297Z,10.26
2023-05-12T17:19:29.082Z,10.04
2023-05-12T17:21:55.833Z,10.68
2023-05-12T17:24:22.417Z,11.59
2023-05-12T17:26:49.155Z,11.92
2023-05-12T17:29:16.104Z,11.66
2023-05-12T17:31:43.233Z,11.70
2023-05-12T17:34:09.936Z,11.37
2023-05-12T17:36:37.348Z,11.65
2023-05-12T17:39:04.028Z,11.72
2023-05-12T17:41:30.721Z,11.61
2023-05-12T17:43:57.321Z,11.85
2023-05-12T17:46:24.010Z,11.66
2023-05-12T17:48:50.718Z,11.69
2023-05-12T17:51:17.355Z,11.46
2023-05-12T17:53:44.118Z,11.61
2023-05-12T17:56:11.472Z,11.48
2023-05-12T17:58:38.133Z,11.41
2023-05-12T18:01:04.814Z,10.81
2023-05-12T18:03:31.650Z,10.71
2023-05-12T18:05:58.241Z,10.60
2023-05-12T18:08:24.880Z,10.40
2023-05-12T18:10:51.445Z,10.07
2023-05-12T18:13:18.132Z,9.99
2023-05-12T18:15:44.724Z,9.19
2023-05-12T18:18:12.422Z,9.15
2023-05-12T18:20:39.148Z,8.67
2023-05-12T18:23:05.787Z,8.51
2023-05-12T18:25:32.668Z,8.02
2023-05-12T18:27:59.352Z,7.68
2023-05-12T18:30:25.921Z,7.17
2023-05-12T18:32:52.708Z,6.84
2023-05-12T18:35:19.764Z,6.90
2023-05-12T18:37:46.623Z,6.61
2023-05-12T18:40:13.234Z,6.58
2023-05-12T18:42:39.977Z,6.35
2023-05-12T18:45:07.234Z,6.54
2023-05-12T18:47:34.323Z,6.55
2023-05-12T18:50:01.060Z,6.40
2023-05-12T18:52:27.641Z,6.45
2023-05-12T18:54:54.248Z,6.83
2023-05-12T18:57:20.878Z,7.10
2023-05-12T18:59:47.554Z,8.04
2023-05-12T19:02:14.212Z,8.93
2023-05-12T19:04:40.963Z,10.04
2023-05-12T19:07:09.695Z,9.88
2023-05-12T19:09:37.018Z,10.03
2023-05-12T19:12:05.868Z,10.46
2023-05-12T19:14:32.888Z,10.54
2023-05-12T19:16:59.503Z,10.15
2023-05-12T19:19:26.109Z,10.25
2023-05-12T19:21:52.738Z,10.23
2023-05-12T19:24:19.601Z,10.29
2023-05-12T19:26:46.222Z,10.85
2023-05-12T19:29:13.538Z,11.09
2023-05-12T19:31:40.523Z,13.43
2023-05-12T19:34:07.811Z,14.46
2023-05-12T19:36:35.914Z,14.27
2023-05-12T19:39:02.551Z,12.79
2023-05-12T19:41:29.305Z,11.83
2023-05-12T19:43:56.256Z,11.39
2023-05-12T19:46:23.484Z,11.41
2023-05-12T19:48:51.155Z,11.06
2023-05-12T19:51:17.942Z,10.86
2023-05-12T19:53:44.726Z,10.10
2023-05-12T19:56:11.379Z,9.94
2023-05-12T19:58:38.350Z,9.45
2023-05-12T20:01:05.176Z,10.15
2023-05-12T20:03:32.121Z,9.82
2023-05-12T20:05:58.891Z,10.22
2023-05-12T20:08:25.676Z,10.38
2023-05-12T20:10:52.319Z,10.08
2023-05-12T20:13:18.983Z,10.56
2023-05-12T20:15:45.778Z,10.38
2023-05-12T20:18:15.419Z,10.29
2023-05-12T20:20:43.167Z,10.54
2023-05-12T20:23:09.917Z,10.82
2023-05-12T20:25:36.817Z,10.84
2023-05-12T20:28:03.639Z,10.66
2023-05-12T20:30:30.348Z,10.78
2023-05-12T20:32:57.019Z,11.28
2023-05-12T20:35:23.884Z,11.41
2023-05-12T20:37:50.834Z,11.81
2023-05-12T20:40:17.689Z,11.53
2023-05-12T20:42:48.288Z,11.65
2023-05-12T20:45:15.856Z,11.77
2023-05-12T20:47:42.813Z,11.96
2023-05-12T20:50:10.803Z,12.16
2023-05-12T20:52:38.578Z,12.11
2023-05-12T20:55:06.409Z,12.38
2023-05-12T20:57:33.077Z,12.64
2023-05-12T20:59:59.727Z,12.63
2023-05-12T21:02:27.990Z,12.92
2023-05-12T21:04:55.273Z,12.68
2023-05-12T21:07:21.949Z,13.13
2023-05-12T21:09:48.645Z,13.12
2023-05-12T21:12:15.202Z,13.08
2023-05-12T21:14:43.677Z,12.93
2023-05-12T21:17:11.974Z,13.19
2023-05-12T21:19:40.610Z,13.18
2023-05-12T21:22:09.098Z,13.41
2023-05-12T21:24:37.308Z,13.26
2023-05-12T21:27:05.689Z,13.18
2023-05-12T21:29:33.665Z,13.00
2023-05-12T21:32:00.891Z,13.18
2023-05-12T21:34:27.741Z,13.29
2023-05-12T21:36:54.792Z,13.36
2023-05-12T21:39:22.014Z,13.40
2023-05-12T21:41:48.968Z,13.31
2023-05-12T21:44:16.217Z,13.25
2023-05-12T21:46:42.913Z,13.19
2023-05-12T21:49:09.692Z,13.53
2023-05-12T21:51:36.424Z,13.09
2023-05-12T21:54:03.214Z,13.48
2023-05-12T21:56:29.805Z,13.41
2023-05-12T21:58:56.415Z,13.04
2023-05-12T22:01:23.159Z,13.24
2023-05-12T22:03:50.663Z,13.59
2023-05-12T22:06:17.878Z,13.52
2023-05-12T22:08:44.469Z,13.66
2023-05-12T22:11:11.277Z,13.11
2023-05-12T22:13:37.977Z,13.19
2023-05-12T22:16:04.912Z,12.96
2023-05-12T22:18:31.984Z,13.31
2023-05-12T22:20:58.885Z,13.16
2023-05-12T22:23:25.494Z,13.12
2023-05-12T22:25:52.252Z,13.23
2023-05-12T22:28:18.812Z,12.70
2023-05-12T22:30:45.503Z,12.68
2023-05-12T22:33:12.172Z,12.12
2023-05-12T22:35:38.800Z,12.47
2023-05-12T22:38:05.728Z,12.10
2023-05-12T22:40:33.513Z,11.74
2023-05-12T22:43:00.135Z,11.59
2023-05-12T22:45:26.801Z,11.77
2023-05-12T22:47:53.787Z,11.46
2023-05-12T22:50:21.560Z,10.99
2023-05-12T22:52:48.324Z,10.86
2023-05-12T22:55:15.206Z,10.92
2023-05-12T22:57:43.754Z,10.79
2023-05-12T23:00:11.527Z,10.86
2023-05-12T23:02:38.194Z,10.64
2023-05-12T23:05:05.170Z,10.33
2023-05-12T23:07:31.801Z,10.17
2023-05-12T23:09:58.411Z,9.97
2023-05-12T23:12:24.988Z,10.03
2023-05-12T23:14:51.625Z,9.97
2023-05-12T23:17:18.552Z,10.07
2023-05-12T23:19:45.131Z,10.12
2023-05-12T23:22:11.732Z,10.00
2023-05-12T23:24:38.380Z,10.03
2023-05-12T23:27:05.032Z,10.15
2023-05-12T23:29:31.627Z,9.94
2023-05-12T23:31:58.880Z,9.99
2023-05-12T23:34:25.658Z,10.26
2023-05-12T23:36:52.338Z,9.78
2023-05-12T23:39:18.935Z,10.00
2023-05-12T23:41:45.666Z,9.86
2023-05-12T23:44:12.880Z,9.70
2023-05-12T23:46:39.633Z,9.88
2023-05-12T23:49:06.407Z,9.75
2023-05-12T23:51:34.275Z,9.57
2023-05-12T23:54:00.917Z,9.63
2023-05-12T23:56:27.538Z,9.66
2023-05-12T23:58:54.139Z,9.74
